Time;durP1;ratioP1;P1;durP2;ratioP2;P2;SDS_P1;SDS_P2;PMS_P1;PMS_P2;Temp;Humidity;BMP_temperature;BMP_pressure;BME280_temperature;BME280_humidity;BME280_pressure;Samples;Min_cycle;Max_cycle;Signal;HPM_P1;HPM_P2
2022/12/21 00:01:16;;;;;;;;;;;20.90;60.10;;;;;;1527793;76;698;-58
2022/12/21 00:03:18;;;;;;;;;;;20.90;60.10;;;;;;1536065;76;1930;-58
2022/12/21 00:05:20;;;;;;;;;;;20.90;60.20;;;;;;1525509;76;708;-60
2022/12/21 00:07:22;;;;;;;;;;;20.90;60.10;;;;;;1529575;76;639;-61
2022/12/21 00:09:24;;;;;;;;;;;20.90;60.10;;;;;;1533368;76;1439;-59
2022/12/21 00:11:26;;;;;;;;;;;20.90;60.10;;;;;;1537019;76;759;-60
2022/12/21 00:13:28;;;;;;;;;;;20.80;60.20;;;;;;1533787;76;716;-58
2022/12/21 00:15:30;;;;;;;;;;;20.90;60.20;;;;;;1533440;76;786;-59
2022/12/21 00:17:32;;;;;;;;;;;20.90;60.20;;;;;;1534204;76;623;-60
2022/12/21 00:19:33;;;;;;;;;;;20.90;60.10;;;;;;1534166;76;1122;-59
2022/12/21 00:21:36;;;;;;;;;;;20.90;60.10;;;;;;1533681;76;713;-60
2022/12/21 00:23:38;;;;;;;;;;;20.90;60.10;;;;;;1534348;76;1904;-59
2022/12/21 00:25:40;;;;;;;;;;;21.00;60.10;;;;;;1530368;76;783;-60
2022/12/21 00:27:42;;;;;;;;;;;21.00;60.00;;;;;;1536082;76;702;-60
2022/12/21 00:29:44;;;;;;;;;;;20.90;60.10;;;;;;1529511;76;1095;-60
2022/12/21 00:31:45;;;;;;;;;;;20.90;60.10;;;;;;1531934;77;731;-60
2022/12/21 00:33:47;;;;;;;;;;;20.90;60.00;;;;;;1534900;77;689;-60
2022/12/21 00:35:50;;;;;;;;;;;21.00;59.80;;;;;;1531118;76;1462;-59
2022/12/21 00:37:52;;;;;;;;;;;20.90;59.80;;;;;;1536485;76;730;-59
2022/12/21 00:39:53;;;;;;;;;;;20.90;59.70;;;;;;1531414;76;1063;-59
2022/12/21 00:41:55;;;;;;;;;;;21.00;59.70;;;;;;1525842;76;1940;-59
2022/12/21 00:43:57;;;;;;;;;;;20.90;59.60;;;;;;1534030;76;793;-60
2022/12/21 00:45:59;;;;;;;;;;;21.00;59.50;;;;;;1534838;76;698;-59
2022/12/21 00:48:01;;;;;;;;;;;21.00;59.50;;;;;;1532733;76;677;-59
2022/12/21 00:50:03;;;;;;;;;;;21.00;59.50;;;;;;1534423;76;1502;-59
2022/12/21 00:52:05;;;;;;;;;;;20.90;59.50;;;;;;1529818;76;720;-59
2022/12/21 00:54:07;;;;;;;;;;;21.00;59.50;;;;;;1533576;76;756;-60
2022/12/21 00:56:09;;;;;;;;;;;20.90;59.60;;;;;;1536326;76;697;-60
2022/12/21 00:58:11;;;;;;;;;;;20.90;59.50;;;;;;1534355;76;1165;-60
2022/12/21 01:00:13;;;;;;;;;;;20.90;59.60;;;;;;1536145;76;794;-58
2022/12/21 01:02:15;;;;;;;;;;;20.90;59.60;;;;;;1534842;76;1924;-59
2022/12/21 01:04:17;;;;;;;;;;;20.90;59.60;;;;;;1536156;76;1479;-60
2022/12/21 01:06:23;;;;;;;;;;;20.90;59.50;;;;;;1534066;76;705;-59
2022/12/21 01:08:25;;;;;;;;;;;20.90;59.50;;;;;;1535185;76;1069;-60
2022/12/21 01:10:27;;;;;;;;;;;20.90;59.50;;;;;;1525741;76;761;-60
2022/12/21 01:12:28;;;;;;;;;;;20.90;59.50;;;;;;1533709;76;747;-60
2022/12/21 01:14:30;;;;;;;;;;;21.00;59.50;;;;;;1533823;77;723;-59
2022/12/21 01:16:32;;;;;;;;;;;20.90;59.50;;;;;;1535352;77;618;-59
2022/12/21 01:18:34;;;;;;;;;;;20.90;59.70;;;;;;1532978;76;1427;-60
2022/12/21 01:20:38;;;;;;;;;;;20.80;59.70;;;;;;1534900;76;697;-61
2022/12/21 01:22:40;;;;;;;;;;;20.90;59.80;;;;;;1530450;76;1930;-61
2022/12/21 01:24:41;;;;;;;;;;;20.90;59.80;;;;;;1535636;76;787;-61
2022/12/21 01:26:43;;;;;;;;;;;20.90;59.80;;;;;;1538516;76;766;-62
2022/12/21 01:28:45;;;;;;;;;;;20.90;59.80;;;;;;1535634;76;1203;-62
2022/12/21 01:30:47;;;;;;;;;;;20.80;59.70;;;;;;1535257;76;804;-62
2022/12/21 01:32:49;;;;;;;;;;;20.80;59.80;;;;;;1534186;76;1460;-62
2022/12/21 01:34:51;;;;;;;;;;;20.80;59.80;;;;;;1535192;76;576;-62
2022/12/21 01:36:53;;;;;;;;;;;20.90;60.00;;;;;;1534982;76;649;-62
2022/12/21 01:38:55;;;;;;;;;;;20.80;60.10;;;;;;1530129;76;1169;-62
2022/12/21 01:40:57;;;;;;;;;;;20.70;60.20;;;;;;1527480;76;777;-61
2022/12/21 01:42:59;;;;;;;;;;;20.70;60.40;;;;;;1526944;76;1924;-63
2022/12/21 01:45:02;;;;;;;;;;;20.70;60.50;;;;;;1529007;76;800;-63
2022/12/21 01:47:04;;;;;;;;;;;20.70;60.50;;;;;;1533115;76;1457;-63
2022/12/21 01:49:13;;;;;;;;;;;20.70;60.60;;;;;;1535377;76;1133;-63
2022/12/21 01:51:15;;;;;;;;;;;20.70;60.70;;;;;;1532707;76;791;-63
2022/12/21 01:53:25;;;;;;;;;;;20.70;60.70;;;;;;1533051;76;779;-63
2022/12/21 01:55:26;;;;;;;;;;;20.70;60.60;;;;;;1525255;76;1621;-62
2022/12/21 01:57:29;;;;;;;;;;;20.70;60.60;;;;;;1529669;76;698;-63
2022/12/21 01:59:36;;;;;;;;;;;20.70;60.60;;;;;;1532218;76;1106;-63
2022/12/21 02:01:38;;;;;;;;;;;20.70;60.40;;;;;;1527383;76;1453;-62
2022/12/21 02:03:41;;;;;;;;;;;20.80;60.40;;;;;;1535345;76;1943;-62
2022/12/21 02:05:54;;;;;;;;;;;20.80;60.40;;;;;;1536348;76;747;-61
2022/12/21 02:07:56;;;;;;;;;;;20.70;60.40;;;;;;1525494;76;736;-61
2022/12/21 02:09:58;;;;;;;;;;;20.70;60.40;;;;;;1530932;76;1108;-62
2022/12/21 02:12:01;;;;;;;;;;;20.70;60.40;;;;;;1531962;76;768;-61
2022/12/21 02:14:03;;;;;;;;;;;20.80;60.40;;;;;;1534901;76;871;-62
2022/12/21 02:16:10;;;;;;;;;;;20.70;60.50;;;;;;1531325;76;1192;-61
2022/12/21 02:18:14;;;;;;;;;;;20.70;60.40;;;;;;1525789;76;1818;-61
2022/12/21 02:20:33;;;;;;;;;;;20.70;60.40;;;;;;1532810;76;1884;-62
2022/12/21 02:22:51;;;;;;;;;;;20.80;60.40;;;;;;1528400;76;1933;-61
2022/12/21 02:25:04;;;;;;;;;;;20.70;60.50;;;;;;1535919;76;711;-61
2022/12/21 02:27:13;;;;;;;;;;;20.70;60.50;;;;;;1532705;76;1746;-62
2022/12/21 02:29:17;;;;;;;;;;;20.70;60.50;;;;;;1531924;76;1362;-62
2022/12/21 02:31:20;;;;;;;;;;;20.70;60.60;;;;;;1526091;76;1604;-62
2022/12/21 02:33:24;;;;;;;;;;;20.70;60.50;;;;;;1524231;76;704;-62
2022/12/21 02:35:27;;;;;;;;;;;20.70;60.60;;;;;;1518838;76;1589;-61
2022/12/21 02:37:40;;;;;;;;;;;20.60;60.50;;;;;;1532052;76;793;-62
2022/12/21 02:39:44;;;;;;;;;;;20.70;60.60;;;;;;1529925;76;1139;-62
2022/12/21 02:41:59;;;;;;;;;;;20.70;60.50;;;;;;1530445;77;2041;-60
2022/12/21 02:44:14;;;;;;;;;;;20.70;60.50;;;;;;1534015;76;1944;-61
2022/12/21 02:46:18;;;;;;;;;;;20.70;60.70;;;;;;1532211;76;808;-63
2022/12/21 02:48:21;;;;;;;;;;;20.60;60.70;;;;;;1533198;76;1144;-62
2022/12/21 02:50:24;;;;;;;;;;;20.60;61.00;;;;;;1534393;77;732;-61
2022/12/21 02:52:28;;;;;;;;;;;20.50;60.90;;;;;;1527060;76;725;-62
2022/12/21 02:54:30;;;;;;;;;;;20.60;61.00;;;;;;1523580;77;697;-62
2022/12/21 02:56:32;;;;;;;;;;;20.60;61.00;;;;;;1535775;77;1462;-62
2022/12/21 02:58:34;;;;;;;;;;;20.50;61.10;;;;;;1529300;77;1107;-62
2022/12/21 03:00:35;;;;;;;;;;;20.60;61.10;;;;;;1531601;76;821;-62
2022/12/21 03:03:47;;;;;;;;;;;20.50;61.10;;;;;;1531089;76;1943;-62
2022/12/21 03:05:02;;;;;;;;;;;20.50;61.10;;;;;;1530191;76;1447;-60
2022/12/21 03:07:09;;;;;;;;;;;20.50;61.10;;;;;;1531062;76;685;-62
2022/12/21 03:09:15;;;;;;;;;;;20.60;61.00;;;;;;1524519;76;1395;-61
2022/12/21 03:11:17;;;;;;;;;;;20.50;61.10;;;;;;1534946;76;1472;-60
2022/12/21 03:13:21;;;;;;;;;;;20.50;61.40;;;;;;1535495;76;673;-62
2022/12/21 03:15:24;;;;;;;;;;;20.50;61.20;;;;;;1523886;76;1811;-62
2022/12/21 03:17:43;;;;;;;;;;;20.50;61.20;;;;;;1534879;76;1836;-61
2022/12/21 03:19:47;;;;;;;;;;;20.50;61.20;;;;;;1531165;77;1119;-61
2022/12/21 03:21:50;;;;;;;;;;;20.50;61.10;;;;;;1528275;76;1811;-62
2022/12/21 03:23:57;;;;;;;;;;;20.60;61.10;;;;;;1523567;76;1924;-61
2022/12/21 03:26:01;;;;;;;;;;;20.60;61.00;;;;;;1531701;76;1451;-61
2022/12/21 03:28:04;;;;;;;;;;;20.60;61.00;;;;;;1528536;76;763;-61
2022/12/21 03:30:10;;;;;;;;;;;20.50;61.00;;;;;;1534672;76;1143;-60
2022/12/21 03:32:13;;;;;;;;;;;20.60;61.10;;;;;;1534024;76;688;-63
2022/12/21 03:34:17;;;;;;;;;;;20.50;61.20;;;;;;1533750;76;707;-61
2022/12/21 03:36:20;;;;;;;;;;;20.60;61.30;;;;;;1535270;76;729;-60
2022/12/21 03:38:24;;;;;;;;;;;20.50;61.30;;;;;;1530329;76;1105;-61
2022/12/21 03:40:26;;;;;;;;;;;20.50;61.40;;;;;;1518458;76;1552;-61
2022/12/21 03:42:30;;;;;;;;;;;20.50;61.40;;;;;;1526505;72;221447;-77
2022/12/21 03:44:34;;;;;;;;;;;20.40;61.40;;;;;;1527960;76;1929;-78
2022/12/21 03:46:37;;;;;;;;;;;20.50;61.50;;;;;;1562903;74;785;-77
2022/12/21 03:48:53;;;;;;;;;;;20.50;61.60;;;;;;1567751;74;1628;-77
2022/12/21 03:50:56;;;;;;;;;;;20.50;61.70;;;;;;1577154;74;714;-76
2022/12/21 03:53:08;;;;;;;;;;;20.40;61.60;;;;;;1573538;74;1606;-75
2022/12/21 03:55:15;;;;;;;;;;;20.40;61.70;;;;;;1531322;76;752;-75
2022/12/21 03:57:17;;;;;;;;;;;20.40;61.70;;;;;;1584923;74;706;-77
2022/12/21 03:59:19;;;;;;;;;;;20.40;61.70;;;;;;1583712;74;740;-76
2022/12/21 04:01:34;;;;;;;;;;;20.40;61.80;;;;;;1586110;74;745;-76
2022/12/21 04:03:38;;;;;;;;;;;20.40;61.80;;;;;;1568153;74;1927;-76
2022/12/21 04:05:41;;;;;;;;;;;20.40;61.70;;;;;;1542437;76;707;-77
2022/12/21 04:07:43;;;;;;;;;;;20.40;61.70;;;;;;1539003;75;1570;-76
2022/12/21 04:09:45;;;;;;;;;;;20.50;61.70;;;;;;1510570;77;1353;-74
2022/12/21 04:14:07;;;;;;;;;;;20.40;61.60;;;;;;1564501;74;1649;-74
2022/12/21 04:16:08;;;;;;;;;;;20.40;61.60;;;;;;1593958;73;731;-74
2022/12/21 04:18:10;;;;;;;;;;;20.40;61.70;;;;;;1593090;74;627;-73
2022/12/21 04:20:23;;;;;;;;;;;20.40;61.70;;;;;;1591562;74;743;-76
2022/12/21 04:29:25;;;;;;;;;;;20.40;61.60;;;;;;1585781;74;1618;-75
2022/12/21 04:31:27;;;;;;;;;;;20.40;61.60;;;;;;1589650;74;733;-74
2022/12/21 04:33:29;;;;;;;;;;;20.40;61.60;;;;;;1591498;73;1145;-73
2022/12/21 04:35:31;;;;;;;;;;;20.50;61.70;;;;;;1599899;73;1370;-74
2022/12/21 04:37:35;;;;;;;;;;;20.50;61.60;;;;;;1593488;74;721;-72
2022/12/21 04:39:37;;;;;;;;;;;20.50;61.60;;;;;;1591482;74;715;-74
2022/12/21 04:41:38;;;;;;;;;;;20.50;61.60;;;;;;1592333;74;690;-74
2022/12/21 04:43:41;;;;;;;;;;;20.50;61.60;;;;;;1592360;73;1935;-75
2022/12/21 04:45:42;;;;;;;;;;;20.40;61.50;;;;;;1593206;74;725;-75
2022/12/21 04:47:44;;;;;;;;;;;20.40;61.60;;;;;;1571126;74;720;-74
2022/12/21 04:49:46;;;;;;;;;;;20.40;61.50;;;;;;1579111;74;1550;-74
2022/12/21 04:51:48;;;;;;;;;;;20.50;61.60;;;;;;1597832;73;753;-74
2022/12/21 04:53:50;;;;;;;;;;;20.40;61.60;;;;;;1583548;74;1132;-74
2022/12/21 04:55:52;;;;;;;;;;;20.40;61.60;;;;;;1585029;74;730;-72
2022/12/21 04:57:54;;;;;;;;;;;20.40;61.60;;;;;;1584531;74;719;-77
2022/12/21 04:59:55;;;;;;;;;;;20.40;61.60;;;;;;1589425;74;599;-74
2022/12/21 05:01:57;;;;;;;;;;;20.40;61.60;;;;;;1586917;74;735;-74
2022/12/21 05:03:59;;;;;;;;;;;20.40;61.60;;;;;;1589653;73;1946;-74
2022/12/21 05:06:01;;;;;;;;;;;20.40;61.60;;;;;;1593781;73;713;-73
2022/12/21 05:08:03;;;;;;;;;;;20.40;61.60;;;;;;1584488;73;681;-74
2022/12/21 05:10:05;;;;;;;;;;;20.40;61.60;;;;;;1590646;74;718;-73
2022/12/21 05:12:07;;;;;;;;;;;20.40;61.60;;;;;;1580777;73;747;-73
2022/12/21 05:14:09;;;;;;;;;;;20.40;61.60;;;;;;1586841;73;1090;-72
2022/12/21 05:16:14;;;;;;;;;;;20.40;61.60;;;;;;1593858;74;756;-73
2022/12/21 05:18:16;;;;;;;;;;;20.40;61.60;;;;;;1586534;73;1581;-73
2022/12/21 05:20:18;;;;;;;;;;;20.40;61.60;;;;;;1582892;73;735;-71
2022/12/21 05:22:19;;;;;;;;;;;20.40;61.70;;;;;;1596982;73;1145;-74
2022/12/21 05:24:21;;;;;;;;;;;20.40;61.70;;;;;;1593429;74;1941;-75
2022/12/21 05:26:23;;;;;;;;;;;20.40;61.70;;;;;;1589158;74;710;-73
2022/12/21 05:28:25;;;;;;;;;;;20.40;61.70;;;;;;1589853;74;803;-72
2022/12/21 05:30:27;;;;;;;;;;;20.40;62.50;;;;;;1590141;74;854;-71
2022/12/21 05:32:29;;;;;;;;;;;20.40;62.60;;;;;;1593061;74;1590;-73
2022/12/21 05:34:31;;;;;;;;;;;20.40;62.70;;;;;;1582596;74;805;-73
2022/12/21 05:36:33;;;;;;;;;;;20.40;62.70;;;;;;1595179;73;706;-72
2022/12/21 05:38:34;;;;;;;;;;;20.40;62.60;;;;;;1594685;74;541;-72
2022/12/21 05:40:36;;;;;;;;;;;20.30;62.60;;;;;;1594662;73;754;-74
2022/12/21 05:42:38;;;;;;;;;;;20.40;62.70;;;;;;1592257;73;1119;-71
2022/12/21 05:44:40;;;;;;;;;;;20.30;62.70;;;;;;1590656;74;1942;-70
2022/12/21 05:46:42;;;;;;;;;;;20.30;62.70;;;;;;1588820;73;1527;-71
2022/12/21 05:48:44;;;;;;;;;;;20.40;62.70;;;;;;1586781;73;705;-71
2022/12/21 05:50:46;;;;;;;;;;;20.40;62.70;;;;;;1594649;73;739;-70
2022/12/21 05:52:48;;;;;;;;;;;20.30;62.70;;;;;;1590568;73;1129;-70
2022/12/21 05:54:49;;;;;;;;;;;20.40;62.70;;;;;;1592770;74;648;-74
2022/12/21 05:56:51;;;;;;;;;;;20.40;62.70;;;;;;1589212;74;793;-74
2022/12/21 05:58:53;;;;;;;;;;;20.30;62.80;;;;;;1591436;74;729;-72
2022/12/21 06:00:55;;;;;;;;;;;20.40;63.00;;;;;;1592628;74;1698;-69
2022/12/21 06:02:57;;;;;;;;;;;20.40;63.60;;;;;;1587389;73;1068;-72
2022/12/21 06:04:59;;;;;;;;;;;20.30;63.10;;;;;;1586231;74;1929;-69
2022/12/21 06:07:01;;;;;;;;;;;20.40;63.40;;;;;;1597735;73;776;-69
2022/12/21 06:09:03;;;;;;;;;;;20.50;63.10;;;;;;1584092;74;679;-72
2022/12/21 06:11:12;;;;;;;;;;;20.40;62.80;;;;;;1579472;74;768;-71
2022/12/21 06:13:13;;;;;;;;;;;20.30;62.80;;;;;;1590109;73;1525;-71
2022/12/21 06:15:15;;;;;;;;;;;20.40;62.70;;;;;;1595176;74;668;-72
2022/12/21 06:17:17;;;;;;;;;;;20.30;62.60;;;;;;1588493;73;748;-73
2022/12/21 06:19:19;;;;;;;;;;;20.30;62.60;;;;;;1591498;73;737;-71
2022/12/21 06:21:21;;;;;;;;;;;20.40;62.60;;;;;;1600955;73;701;-72
2022/12/21 06:23:24;;;;;;;;;;;20.40;62.60;;;;;;1589632;73;1173;-71
2022/12/21 06:25:25;;;;;;;;;;;20.40;62.50;;;;;;1589950;73;1906;-75
2022/12/21 06:27:27;;;;;;;;;;;20.40;62.50;;;;;;1599121;73;1553;-69
2022/12/21 06:29:29;;;;;;;;;;;20.30;62.90;;;;;;1598084;74;793;-71
2022/12/21 06:31:31;;;;;;;;;;;20.30;63.20;;;;;;1593809;73;706;-69
2022/12/21 06:33:33;;;;;;;;;;;20.30;63.10;;;;;;1597521;73;1132;-72
2022/12/21 06:35:35;;;;;;;;;;;20.30;63.10;;;;;;1599371;74;732;-71
2022/12/21 06:37:37;;;;;;;;;;;20.30;63.60;;;;;;1597340;73;795;-72
2022/12/21 06:39:39;;;;;;;;;;;20.30;63.70;;;;;;1600532;74;767;-69
2022/12/21 06:41:41;;;;;;;;;;;20.30;63.70;;;;;;1599413;73;1569;-75
2022/12/21 06:43:43;;;;;;;;;;;20.50;63.40;;;;;;1592563;73;1131;-75
2022/12/21 06:45:45;;;;;;;;;;;20.40;62.90;;;;;;1598542;73;1937;-75
2022/12/21 06:47:47;;;;;;;;;;;20.50;62.60;;;;;;1571181;74;1039;-75
2022/12/21 06:49:49;;;;;;;;;;;20.50;62.20;;;;;;1587964;73;662;-74
2022/12/21 06:51:51;;;;;;;;;;;20.60;61.90;;;;;;1603904;73;736;-76
2022/12/21 06:53:53;;;;;;;;;;;20.60;61.70;;;;;;1586520;73;1171;-76
2022/12/21 06:56:01;;;;;;;;;;;20.60;61.50;;;;;;1590365;73;1515;-75
2022/12/21 06:58:03;;;;;;;;;;;20.70;61.40;;;;;;1594210;73;801;-76
2022/12/21 07:00:06;;;;;;;;;;;20.70;61.20;;;;;;1603555;73;829;-75
2022/12/21 07:02:08;;;;;;;;;;;20.70;61.00;;;;;;1563439;75;1210;-76
2022/12/21 07:04:10;;;;;;;;;;;20.80;60.90;;;;;;1590760;73;1935;-76
2022/12/21 07:06:13;;;;;;;;;;;20.80;60.70;;;;;;1592715;73;702;-75
2022/12/21 07:08:14;;;;;;;;;;;20.70;60.70;;;;;;1586508;74;790;-76
2022/12/21 07:10:16;;;;;;;;;;;20.80;60.60;;;;;;1590332;74;1624;-76
2022/12/21 07:12:18;;;;;;;;;;;20.70;60.50;;;;;;1580046;74;1133;-75
2022/12/21 07:14:20;;;;;;;;;;;20.70;60.60;;;;;;1586751;74;654;-75
2022/12/21 07:16:22;;;;;;;;;;;20.70;60.50;;;;;;1592431;74;768;-77
2022/12/21 07:18:24;;;;;;;;;;;20.80;60.50;;;;;;1592617;74;754;-75
2022/12/21 07:20:26;;;;;;;;;;;20.70;60.40;;;;;;1586626;74;740;-75
2022/12/21 07:22:28;;;;;;;;;;;20.70;60.40;;;;;;1594185;73;1170;-71
2022/12/21 07:24:29;;;;;;;;;;;20.70;60.50;;;;;;1582109;74;1956;-74
2022/12/21 07:26:31;;;;;;;;;;;20.60;60.90;;;;;;1592702;74;800;-74
2022/12/21 07:28:33;;;;;;;;;;;20.40;61.50;;;;;;1592217;74;736;-76
2022/12/21 07:30:35;;;;;;;;;;;20.30;61.70;;;;;;1593588;74;719;-76
2022/12/21 07:32:37;;;;;;;;;;;20.30;61.80;;;;;;1594014;73;1091;-76
2022/12/21 07:34:39;;;;;;;;;;;20.20;61.80;;;;;;1593170;74;742;-75
2022/12/21 07:36:41;;;;;;;;;;;20.20;61.70;;;;;;1593033;74;732;-76
2022/12/21 07:38:43;;;;;;;;;;;20.30;61.60;;;;;;1589532;74;1496;-76
2022/12/21 07:40:44;;;;;;;;;;;20.40;61.40;;;;;;1593737;73;721;-75
2022/12/21 07:42:46;;;;;;;;;;;20.40;61.20;;;;;;1593051;73;1125;-74
2022/12/21 07:44:48;;;;;;;;;;;20.50;61.20;;;;;;1591453;74;1941;-74
2022/12/21 07:46:51;;;;;;;;;;;20.50;61.00;;;;;;1592499;74;726;-74
2022/12/21 07:48:53;;;;;;;;;;;20.50;60.90;;;;;;1593801;74;811;-74
2022/12/21 07:50:54;;;;;;;;;;;20.50;60.80;;;;;;1589292;74;733;-76
2022/12/21 07:52:58;;;;;;;;;;;20.50;60.80;;;;;;1593809;73;1185;-75
2022/12/21 07:55:00;;;;;;;;;;;20.50;60.70;;;;;;1591074;73;735;-76
2022/12/21 07:57:02;;;;;;;;;;;20.60;60.70;;;;;;1593914;74;665;-74
2022/12/21 07:59:04;;;;;;;;;;;20.50;60.70;;;;;;1595251;74;686;-74
2022/12/21 08:01:09;;;;;;;;;;;20.50;60.60;;;;;;1593099;74;770;-76
2022/12/21 08:03:11;;;;;;;;;;;20.60;60.60;;;;;;1589572;73;1145;-76
2022/12/21 08:05:13;;;;;;;;;;;20.50;60.60;;;;;;1593654;74;1911;-76
2022/12/21 08:07:15;;;;;;;;;;;20.50;60.60;;;;;;1589459;74;1376;-76
2022/12/21 08:09:17;;;;;;;;;;;20.50;60.60;;;;;;1592719;74;785;-76
2022/12/21 08:11:19;;;;;;;;;;;20.50;60.60;;;;;;1591687;74;747;-76
2022/12/21 08:13:21;;;;;;;;;;;20.50;60.60;;;;;;1592084;73;1129;-76
2022/12/21 08:15:23;;;;;;;;;;;20.50;60.60;;;;;;1593554;74;721;-75
2022/12/21 08:17:25;;;;;;;;;;;20.50;60.60;;;;;;1592804;74;730;-76
2022/12/21 08:19:27;;;;;;;;;;;20.50;60.60;;;;;;1593311;74;734;-75
2022/12/21 08:21:29;;;;;;;;;;;20.50;60.60;;;;;;1592666;74;1535;-75
2022/12/21 08:23:30;;;;;;;;;;;20.40;60.50;;;;;;1594107;73;1154;-75
2022/12/21 08:25:32;;;;;;;;;;;20.50;60.60;;;;;;1591942;74;1927;-76
2022/12/21 08:27:34;;;;;;;;;;;20.40;60.50;;;;;;1591452;74;713;-76
2022/12/21 08:29:36;;;;;;;;;;;20.40;60.60;;;;;;1589735;74;703;-76
2022/12/21 08:31:38;;;;;;;;;;;20.50;60.60;;;;;;1592076;74;635;-76
2022/12/21 08:33:42;;;;;;;;;;;20.50;60.50;;;;;;1596656;73;1137;-75
2022/12/21 08:35:44;;;;;;;;;;;20.50;60.50;;;;;;1579299;74;1426;-76
2022/12/21 08:37:45;;;;;;;;;;;20.40;60.50;;;;;;1585931;74;688;-76
2022/12/21 08:39:47;;;;;;;;;;;20.40;60.50;;;;;;1590343;73;702;-75
2022/12/21 08:41:49;;;;;;;;;;;20.40;60.50;;;;;;1590259;74;736;-76
2022/12/21 08:43:51;;;;;;;;;;;20.40;60.50;;;;;;1589357;74;1080;-76
2022/12/21 08:45:53;;;;;;;;;;;20.40;60.60;;;;;;1566216;75;1932;-76
2022/12/21 08:47:55;;;;;;;;;;;20.30;60.50;;;;;;1592956;74;1493;-76
2022/12/21 08:49:57;;;;;;;;;;;20.40;60.50;;;;;;1591065;74;878;-76
2022/12/21 08:51:59;;;;;;;;;;;20.40;60.50;;;;;;1592141;73;725;-74
2022/12/21 08:54:00;;;;;;;;;;;20.30;60.60;;;;;;1591883;73;1134;-75
2022/12/21 08:56:02;;;;;;;;;;;20.40;60.50;;;;;;1593889;74;710;-76
2022/12/21 08:58:04;;;;;;;;;;;20.40;60.60;;;;;;1592954;74;743;-75
2022/12/21 09:00:12;;;;;;;;;;;20.30;60.60;;;;;;1592373;74;726;-75
2022/12/21 09:02:14;;;;;;;;;;;20.30;60.50;;;;;;1594654;73;1539;-74
2022/12/21 09:04:16;;;;;;;;;;;20.30;60.60;;;;;;1586267;74;690;-75
2022/12/21 09:06:18;;;;;;;;;;;20.30;60.60;;;;;;1574147;74;1925;-76
2022/12/21 09:08:20;;;;;;;;;;;20.30;60.60;;;;;;1591331;74;748;-76
2022/12/21 09:10:21;;;;;;;;;;;20.30;60.60;;;;;;1589866;74;691;-75
2022/12/21 09:12:23;;;;;;;;;;;20.30;60.60;;;;;;1590360;73;1126;-76
2022/12/21 09:14:25;;;;;;;;;;;20.30;60.60;;;;;;1591228;74;778;-76
2022/12/21 09:16:27;;;;;;;;;;;20.30;60.60;;;;;;1598051;73;1298;-76
2022/12/21 09:18:29;;;;;;;;;;;20.30;60.60;;;;;;1574100;74;769;-75
2022/12/21 09:20:31;;;;;;;;;;;20.30;60.60;;;;;;1581792;74;707;-76
2022/12/21 09:22:33;;;;;;;;;;;20.20;60.50;;;;;;1584835;73;1162;-75
2022/12/21 09:24:35;;;;;;;;;;;20.20;60.50;;;;;;1589618;74;648;-75
2022/12/21 09:26:36;;;;;;;;;;;20.30;60.60;;;;;;1585146;74;1935;-75
2022/12/21 09:28:38;;;;;;;;;;;20.30;60.60;;;;;;1591285;74;727;-76
2022/12/21 09:30:40;;;;;;;;;;;20.30;60.60;;;;;;1587226;74;1271;-76
2022/12/21 09:32:42;;;;;;;;;;;20.30;60.60;;;;;;1578642;73;1118;-76
2022/12/21 09:34:44;;;;;;;;;;;20.20;60.50;;;;;;1585094;74;728;-76
2022/12/21 09:36:46;;;;;;;;;;;20.30;60.60;;;;;;1591502;74;701;-75
2022/12/21 09:38:48;;;;;;;;;;;20.20;60.50;;;;;;1579803;74;699;-75
2022/12/21 09:40:50;;;;;;;;;;;20.20;60.50;;;;;;1592797;74;723;-76
2022/12/21 09:42:57;;;;;;;;;;;20.20;60.50;;;;;;1590988;72;2069;-72
2022/12/21 09:45:15;;;;;;;;;;;20.20;60.50;;;;;;1598421;73;1490;-72
2022/12/21 09:47:18;;;;;;;;;;;20.20;60.50;;;;;;1573243;73;1132;-72
2022/12/21 09:49:21;;;;;;;;;;;20.20;60.50;;;;;;1586312;73;719;-73
2022/12/21 09:51:23;;;;;;;;;;;20.20;60.60;;;;;;1593718;73;712;-73
2022/12/21 09:53:30;;;;;;;;;;;20.10;60.50;;;;;;1601337;73;1187;-72
2022/12/21 09:55:33;;;;;;;;;;;20.20;60.60;;;;;;1602378;74;720;-76
2022/12/21 09:57:35;;;;;;;;;;;20.20;60.60;;;;;;1594366;74;702;-75
2022/12/21 09:59:37;;;;;;;;;;;20.20;60.60;;;;;;1597555;74;1372;-75
2022/12/21 10:01:50;;;;;;;;;;;20.20;60.50;;;;;;1594270;73;654;-76
2022/12/21 10:04:02;;;;;;;;;;;20.20;60.60;;;;;;1599300;72;1181;-74
2022/12/21 10:06:09;;;;;;;;;;;20.20;60.60;;;;;;1587279;74;1917;-75
2022/12/21 10:08:18;;;;;;;;;;;20.20;60.60;;;;;;1543829;74;1025;-75
2022/12/21 10:10:36;;;;;;;;;;;20.10;60.60;;;;;;1597456;74;1142;-75
2022/12/21 10:12:39;;;;;;;;;;;20.20;60.60;;;;;;1595781;74;1517;-73
2022/12/21 10:14:51;;;;;;;;;;;20.20;60.60;;;;;;1597988;74;744;-74
2022/12/21 10:16:58;;;;;;;;;;;20.10;60.60;;;;;;1597416;73;1084;-74
2022/12/21 10:19:10;;;;;;;;;;;20.10;60.60;;;;;;1587212;74;726;-73
2022/12/21 10:21:20;;;;;;;;;;;20.20;60.60;;;;;;1590214;74;1135;-74
2022/12/21 10:23:23;;;;;;;;;;;20.10;60.60;;;;;;1590190;74;1156;-76
2022/12/21 10:25:26;;;;;;;;;;;20.10;60.60;;;;;;1591946;74;1929;-75
2022/12/21 10:27:30;;;;;;;;;;;20.10;60.60;;;;;;1594100;74;1418;-72
2022/12/21 10:29:32;;;;;;;;;;;20.10;60.60;;;;;;1595064;74;999;-76
2022/12/21 10:31:46;;;;;;;;;;;20.20;60.60;;;;;;1592455;73;731;-73
2022/12/21 10:33:46;;;;;;;;;;;20.10;60.50;;;;;;1593860;73;1173;-76
2022/12/21 10:35:48;;;;;;;;;;;20.20;60.60;;;;;;1593395;74;713;-73
2022/12/21 10:37:51;;;;;;;;;;;20.20;60.60;;;;;;1601136;74;599;-75
2022/12/21 10:39:56;;;;;;;;;;;20.20;60.60;;;;;;1594539;74;758;-73
2022/12/21 10:42:03;;;;;;;;;;;20.10;60.50;;;;;;1592197;74;1544;-74
2022/12/21 10:44:05;;;;;;;;;;;20.10;60.60;;;;;;1581838;74;1422;-76
2022/12/21 10:46:06;;;;;;;;;;;20.10;60.60;;;;;;1588682;74;1927;-74
2022/12/21 10:48:08;;;;;;;;;;;20.20;60.50;;;;;;1601950;74;709;-73
2022/12/21 10:50:12;;;;;;;;;;;20.10;60.60;;;;;;1600574;74;719;-73
2022/12/21 10:52:32;;;;;;;;;;;20.10;60.50;;;;;;1584093;74;705;-75
2022/12/21 10:54:34;;;;;;;;;;;20.20;60.50;;;;;;1592813;74;1581;-74
2022/12/21 10:56:38;;;;;;;;;;;20.10;60.60;;;;;;1601526;73;699;-74
2022/12/21 10:58:40;;;;;;;;;;;20.20;60.60;;;;;;1599550;74;1579;-74
2022/12/21 11:00:43;;;;;;;;;;;20.10;60.60;;;;;;1569014;74;1015;-75
2022/12/21 11:02:45;;;;;;;;;;;20.10;60.60;;;;;;1598542;73;1142;-71
2022/12/21 11:04:47;;;;;;;;;;;20.10;60.60;;;;;;1592702;74;743;-75
2022/12/21 11:06:54;;;;;;;;;;;20.00;60.70;;;;;;1593760;74;1925;-74
2022/12/21 11:08:57;;;;;;;;;;;20.00;61.00;;;;;;1585554;74;1003;-76
2022/12/21 11:11:01;;;;;;;;;;;19.90;61.50;;;;;;1593006;74;680;-74
2022/12/21 11:13:04;;;;;;;;;;;19.80;61.60;;;;;;1592635;74;1121;-74
2022/12/21 11:15:08;;;;;;;;;;;19.80;61.90;;;;;;1583472;74;725;-75
2022/12/21 11:17:14;;;;;;;;;;;19.70;62.00;;;;;;1583602;74;1176;-73
2022/12/21 11:19:17;;;;;;;;;;;19.80;62.30;;;;;;1605114;73;965;-73
2022/12/21 11:21:23;;;;;;;;;;;19.70;62.30;;;;;;1593186;74;675;-77
2022/12/21 11:23:25;;;;;;;;;;;19.70;62.40;;;;;;1587404;74;1153;-73
2022/12/21 11:25:28;;;;;;;;;;;19.70;62.60;;;;;;1595213;74;669;-74
2022/12/21 11:27:30;;;;;;;;;;;19.60;62.50;;;;;;1590633;74;1929;-73
2022/12/21 11:29:33;;;;;;;;;;;19.70;62.70;;;;;;1597879;73;646;-74
2022/12/21 11:31:35;;;;;;;;;;;19.70;62.70;;;;;;1594217;74;688;-73
2022/12/21 11:33:37;;;;;;;;;;;19.70;62.70;;;;;;1594939;73;1198;-73
2022/12/21 11:35:39;;;;;;;;;;;19.70;62.80;;;;;;1588445;74;698;-74
2022/12/21 11:37:43;;;;;;;;;;;19.70;62.80;;;;;;1596689;73;578;-75
2022/12/21 11:39:45;;;;;;;;;;;19.70;62.90;;;;;;1593846;74;700;-73
2022/12/21 11:41:49;;;;;;;;;;;19.70;63.00;;;;;;1590429;74;775;-75
2022/12/21 11:43:51;;;;;;;;;;;19.70;62.90;;;;;;1597396;73;1222;-73
2022/12/21 11:45:54;;;;;;;;;;;19.70;62.90;;;;;;1596517;74;1937;-73
2022/12/21 11:48:01;;;;;;;;;;;19.70;62.90;;;;;;1594236;74;716;-73
2022/12/21 11:50:20;;;;;;;;;;;19.70;62.90;;;;;;1590465;74;760;-73
2022/12/21 11:52:32;;;;;;;;;;;19.70;62.90;;;;;;1596539;74;654;-74
2022/12/21 11:54:54;;;;;;;;;;;19.80;62.90;;;;;;1594388;73;1161;-74
2022/12/21 11:57:07;;;;;;;;;;;19.70;63.30;;;;;;1581486;74;940;-73
2022/12/21 11:59:22;;;;;;;;;;;19.70;63.20;;;;;;1593971;74;1059;-75
2022/12/21 12:01:28;;;;;;;;;;;19.80;63.10;;;;;;1589406;74;2000;-72
2022/12/21 12:03:38;;;;;;;;;;;19.70;63.10;;;;;;1596645;73;1175;-74
2022/12/21 12:05:41;;;;;;;;;;;19.70;63.10;;;;;;1580453;74;692;-75
2022/12/21 12:07:45;;;;;;;;;;;19.70;63.00;;;;;;1594243;74;1947;-75
2022/12/21 12:09:48;;;;;;;;;;;19.70;63.10;;;;;;1587149;74;1605;-75
2022/12/21 12:11:58;;;;;;;;;;;19.80;63.10;;;;;;1593250;74;1408;-75
2022/12/21 12:14:01;;;;;;;;;;;19.80;63.00;;;;;;1596475;73;1150;-75
2022/12/21 12:16:12;;;;;;;;;;;19.80;62.80;;;;;;1594726;74;707;-72
2022/12/21 12:18:15;;;;;;;;;;;19.90;62.70;;;;;;1594343;74;700;-74
2022/12/21 12:20:28;;;;;;;;;;;20.00;62.50;;;;;;1577172;74;613;-74
2022/12/21 12:22:41;;;;;;;;;;;20.00;62.40;;;;;;1580332;74;680;-73
2022/12/21 12:24:44;;;;;;;;;;;20.00;62.30;;;;;;1596000;74;984;-73